sensor_id;sensor_type;location;lat;lon;timestamp;temperature;humidity
12438;DHT22;6283;51.330;12.374;2023-05-23T00:00:25;19.70;1.00
12438;DHT22;6283;51.330;12.374;2023-05-23T00:02:51;19.70;1.00
12438;DHT22;6283;51.330;12.374;2023-05-23T00:05:17;19.60;1.00
12438;DHT22;6283;51.330;12.374;2023-05-23T00:07:46;19.60;1.00
12438;DHT22;6283;51.330;12.374;2023-05-23T00:10:12;19.60;1.00
12438;DHT22;6283;51.330;12.374;2023-05-23T00:12:38;19.70;1.00
12438;DHT22;6283;51.330;12.374;2023-05-23T00:15:07;19.70;1.00
12438;DHT22;6283;51.330;12.374;2023-05-23T00:17:33;19.70;1.00
12438;DHT22;6283;51.330;12.374;2023-05-23T00:20:01;19.60;1.00
12438;DHT22;6283;51.330;12.374;2023-05-23T00:22:27;19.60;1.00
12438;DHT22;6283;51.330;12.374;2023-05-23T00:24:52;19.60;1.00
12438;DHT22;6283;51.330;12.374;2023-05-23T00:27:18;19.40;1.00
12438;DHT22;6283;51.330;12.374;2023-05-23T00:29:44;19.20;1.00
12438;DHT22;6283;51.330;12.374;2023-05-23T00:32:14;19.00;1.00
12438;DHT22;6283;51.330;12.374;2023-05-23T00:34:40;18.80;1.00
12438;DHT22;6283;51.330;12.374;2023-05-23T00:37:06;18.70;1.00
12438;DHT22;6283;51.330;12.374;2023-05-23T00:39:32;18.60;1.00
12438;DHT22;6283;51.330;12.374;2023-05-23T00:41:58;18.60;1.00
12438;DHT22;6283;51.330;12.374;2023-05-23T00:44:28;18.50;1.00
12438;DHT22;6283;51.330;12.374;2023-05-23T00:46:55;18.40;1.00
12438;DHT22;6283;51.330;12.374;2023-05-23T00:49:22;18.40;1.00
12438;DHT22;6283;51.330;12.374;2023-05-23T00:51:49;18.40;1.00
12438;DHT22;6283;51.330;12.374;2023-05-23T00:54:23;18.30;1.00
12438;DHT22;6283;51.330;12.374;2023-05-23T00:56:49;18.30;1.00
12438;DHT22;6283;51.330;12.374;2023-05-23T00:59:15;18.20;1.00
12438;DHT22;6283;51.330;12.374;2023-05-23T01:01:42;18.20;1.00
12438;DHT22;6283;51.330;12.374;2023-05-23T01:04:11;18.10;1.00
12438;DHT22;6283;51.330;12.374;2023-05-23T01:06:38;18.20;1.00
12438;DHT22;6283;51.330;12.374;2023-05-23T01:09:04;18.20;1.00
12438;DHT22;6283;51.330;12.374;2023-05-23T01:12:00;18.30;1.00
12438;DHT22;6283;51.330;12.374;2023-05-23T01:14:41;18.30;1.00
12438;DHT22;6283;51.330;12.374;2023-05-23T01:17:23;18.40;1.00
12438;DHT22;6283;51.330;12.374;2023-05-23T01:22:36;18.40;1.00
12438;DHT22;6283;51.330;12.374;2023-05-23T01:28:05;18.40;1.00
12438;DHT22;6283;51.330;12.374;2023-05-23T01:30:35;18.40;1.00
12438;DHT22;6283;51.330;12.374;2023-05-23T01:33:03;18.30;1.00
12438;DHT22;6283;51.330;12.374;2023-05-23T01:35:30;18.20;1.00
12438;DHT22;6283;51.330;12.374;2023-05-23T01:37:57;18.10;1.00
12438;DHT22;6283;51.330;12.374;2023-05-23T01:40:23;18.00;1.00
12438;DHT22;6283;51.330;12.374;2023-05-23T01:42:49;17.90;1.00
12438;DHT22;6283;51.330;12.374;2023-05-23T01:45:16;17.80;1.00
12438;DHT22;6283;51.330;12.374;2023-05-23T01:47:42;17.60;1.00
12438;DHT22;6283;51.330;12.374;2023-05-23T01:50:09;17.60;1.00
12438;DHT22;6283;51.330;12.374;2023-05-23T01:52:36;17.50;2.00
12438;DHT22;6283;51.330;12.374;2023-05-23T01:55:04;17.30;14.50
12438;DHT22;6283;51.330;12.374;2023-05-23T01:57:35;17.30;38.30
12438;DHT22;6283;51.330;12.374;2023-05-23T02:00:01;17.30;69.50
12438;DHT22;6283;51.330;12.374;2023-05-23T02:02:27;17.30;99.90
12438;DHT22;6283;51.330;12.374;2023-05-23T02:04:52;17.30;99.90
12438;DHT22;6283;51.330;12.374;2023-05-23T02:07:18;17.30;99.90
12438;DHT22;6283;51.330;12.374;2023-05-23T02:09:48;17.40;99.90
12438;DHT22;6283;51.330;12.374;2023-05-23T02:12:13;17.40;99.90
12438;DHT22;6283;51.330;12.374;2023-05-23T02:14:39;17.40;99.90
12438;DHT22;6283;51.330;12.374;2023-05-23T02:17:09;17.40;99.90
12438;DHT22;6283;51.330;12.374;2023-05-23T02:19:35;17.40;99.90
12438;DHT22;6283;51.330;12.374;2023-05-23T02:22:01;17.50;99.90
12438;DHT22;6283;51.330;12.374;2023-05-23T02:24:27;17.40;99.90
12438;DHT22;6283;51.330;12.374;2023-05-23T02:26:53;17.50;99.90
12438;DHT22;6283;51.330;12.374;2023-05-23T02:29:19;17.50;99.90
12438;DHT22;6283;51.330;12.374;2023-05-23T02:31:44;17.50;99.90
12438;DHT22;6283;51.330;12.374;2023-05-23T02:34:10;17.50;99.90
12438;DHT22;6283;51.330;12.374;2023-05-23T02:36:36;17.50;1.00
12438;DHT22;6283;51.330;12.374;2023-05-23T02:39:02;17.50;1.00
12438;DHT22;6283;51.330;12.374;2023-05-23T02:41:29;17.50;1.00
12438;DHT22;6283;51.330;12.374;2023-05-23T02:43:54;17.50;1.00
12438;DHT22;6283;51.330;12.374;2023-05-23T02:46:20;17.50;1.00
12438;DHT22;6283;51.330;12.374;2023-05-23T02:48:46;17.40;1.00
12438;DHT22;6283;51.330;12.374;2023-05-23T02:51:11;17.50;1.00
12438;DHT22;6283;51.330;12.374;2023-05-23T02:53:38;17.50;1.00
12438;DHT22;6283;51.330;12.374;2023-05-23T02:56:04;17.40;1.00
12438;DHT22;6283;51.330;12.374;2023-05-23T02:58:32;17.40;1.00
12438;DHT22;6283;51.330;12.374;2023-05-23T03:01:02;17.40;1.00
12438;DHT22;6283;51.330;12.374;2023-05-23T03:03:28;17.40;1.00
12438;DHT22;6283;51.330;12.374;2023-05-23T03:05:56;17.40;1.00
12438;DHT22;6283;51.330;12.374;2023-05-23T03:08:22;17.40;1.00
12438;DHT22;6283;51.330;12.374;2023-05-23T03:10:48;17.40;1.00
12438;DHT22;6283;51.330;12.374;2023-05-23T03:13:13;17.30;1.00
12438;DHT22;6283;51.330;12.374;2023-05-23T03:15:39;17.30;1.00
12438;DHT22;6283;51.330;12.374;2023-05-23T03:18:05;17.30;1.00
12438;DHT22;6283;51.330;12.374;2023-05-23T03:20:30;17.30;1.00
12438;DHT22;6283;51.330;12.374;2023-05-23T03:22:56;17.30;5.50
12438;DHT22;6283;51.330;12.374;2023-05-23T03:25:22;17.30;42.00
12438;DHT22;6283;51.330;12.374;2023-05-23T03:27:47;17.20;99.90
12438;DHT22;6283;51.330;12.374;2023-05-23T03:30:13;17.20;99.90
12438;DHT22;6283;51.330;12.374;2023-05-23T03:32:39;17.20;99.90
12438;DHT22;6283;51.330;12.374;2023-05-23T03:35:05;17.20;99.90
12438;DHT22;6283;51.330;12.374;2023-05-23T03:37:30;17.20;99.90
12438;DHT22;6283;51.330;12.374;2023-05-23T03:39:56;17.10;99.90
12438;DHT22;6283;51.330;12.374;2023-05-23T03:42:21;17.10;99.90
12438;DHT22;6283;51.330;12.374;2023-05-23T03:44:47;17.10;99.90
12438;DHT22;6283;51.330;12.374;2023-05-23T03:47:13;17.10;99.90
12438;DHT22;6283;51.330;12.374;2023-05-23T03:49:38;17.10;99.90
12438;DHT22;6283;51.330;12.374;2023-05-23T03:52:04;17.00;99.90
12438;DHT22;6283;51.330;12.374;2023-05-23T03:54:30;17.10;99.90
12438;DHT22;6283;51.330;12.374;2023-05-23T03:56:55;17.00;99.90
12438;DHT22;6283;51.330;12.374;2023-05-23T03:59:21;17.00;99.90
12438;DHT22;6283;51.330;12.374;2023-05-23T04:01:47;16.90;99.90
12438;DHT22;6283;51.330;12.374;2023-05-23T04:04:12;16.90;99.90
12438;DHT22;6283;51.330;12.374;2023-05-23T04:06:38;16.90;99.90
12438;DHT22;6283;51.330;12.374;2023-05-23T04:09:03;16.90;99.90
12438;DHT22;6283;51.330;12.374;2023-05-23T04:11:30;16.90;99.90
12438;DHT22;6283;51.330;12.374;2023-05-23T04:13:56;16.90;99.90
12438;DHT22;6283;51.330;12.374;2023-05-23T04:16:23;16.90;99.90
12438;DHT22;6283;51.330;12.374;2023-05-23T04:18:48;16.80;99.90
12438;DHT22;6283;51.330;12.374;2023-05-23T04:21:14;16.80;99.90
12438;DHT22;6283;51.330;12.374;2023-05-23T04:23:40;16.80;99.90
12438;DHT22;6283;51.330;12.374;2023-05-23T04:26:06;16.80;1.00
12438;DHT22;6283;51.330;12.374;2023-05-23T04:28:32;16.80;1.00
12438;DHT22;6283;51.330;12.374;2023-05-23T04:30:58;16.80;1.00
12438;DHT22;6283;51.330;12.374;2023-05-23T04:33:24;16.70;1.00
12438;DHT22;6283;51.330;12.374;2023-05-23T04:35:50;16.70;1.00
12438;DHT22;6283;51.330;12.374;2023-05-23T04:38:16;16.70;1.00
12438;DHT22;6283;51.330;12.374;2023-05-23T04:40:42;16.70;1.00
12438;DHT22;6283;51.330;12.374;2023-05-23T04:43:07;16.70;1.00
12438;DHT22;6283;51.330;12.374;2023-05-23T04:45:34;16.70;1.00
12438;DHT22;6283;51.330;12.374;2023-05-23T04:48:01;16.60;1.00
12438;DHT22;6283;51.330;12.374;2023-05-23T04:50:28;16.60;1.00
12438;DHT22;6283;51.330;12.374;2023-05-23T04:52:57;16.60;1.00
12438;DHT22;6283;51.330;12.374;2023-05-23T04:55:22;16.50;1.00
12438;DHT22;6283;51.330;12.374;2023-05-23T04:57:48;16.50;1.00
12438;DHT22;6283;51.330;12.374;2023-05-23T05:00:14;16.50;1.00
12438;DHT22;6283;51.330;12.374;2023-05-23T05:02:40;16.60;1.00
12438;DHT22;6283;51.330;12.374;2023-05-23T05:05:09;16.60;1.00
12438;DHT22;6283;51.330;12.374;2023-05-23T05:07:35;16.60;1.00
12438;DHT22;6283;51.330;12.374;2023-05-23T05:10:01;16.60;1.00
12438;DHT22;6283;51.330;12.374;2023-05-23T05:12:27;16.70;1.00
12438;DHT22;6283;51.330;12.374;2023-05-23T05:14:53;16.70;1.00
12438;DHT22;6283;51.330;12.374;2023-05-23T05:17:18;16.80;1.00
12438;DHT22;6283;51.330;12.374;2023-05-23T05:19:44;16.80;1.00
12438;DHT22;6283;51.330;12.374;2023-05-23T05:22:10;16.80;1.00
12438;DHT22;6283;51.330;12.374;2023-05-23T05:24:36;16.80;1.00
12438;DHT22;6283;51.330;12.374;2023-05-23T05:27:02;16.90;1.00
12438;DHT22;6283;51.330;12.374;2023-05-23T05:29:28;17.00;1.00
12438;DHT22;6283;51.330;12.374;2023-05-23T05:31:53;17.10;1.00
12438;DHT22;6283;51.330;12.374;2023-05-23T05:34:19;17.10;99.90
12438;DHT22;6283;51.330;12.374;2023-05-23T05:36:45;17.10;99.90
12438;DHT22;6283;51.330;12.374;2023-05-23T05:39:13;17.20;99.90
12438;DHT22;6283;51.330;12.374;2023-05-23T05:41:38;17.30;99.90
12438;DHT22;6283;51.330;12.374;2023-05-23T05:44:05;17.40;99.90
12438;DHT22;6283;51.330;12.374;2023-05-23T05:46:31;17.30;99.90
12438;DHT22;6283;51.330;12.374;2023-05-23T05:48:56;17.30;99.90
12438;DHT22;6283;51.330;12.374;2023-05-23T05:51:22;17.30;99.90
12438;DHT22;6283;51.330;12.374;2023-05-23T05:53:48;17.20;99.90
12438;DHT22;6283;51.330;12.374;2023-05-23T05:56:14;17.30;99.90
12438;DHT22;6283;51.330;12.374;2023-05-23T05:58:39;17.30;99.90
12438;DHT22;6283;51.330;12.374;2023-05-23T06:01:05;17.30;99.90
12438;DHT22;6283;51.330;12.374;2023-05-23T06:03:32;17.30;99.90
12438;DHT22;6283;51.330;12.374;2023-05-23T06:05:58;17.20;99.90
12438;DHT22;6283;51.330;12.374;2023-05-23T06:08:24;17.30;99.90
12438;DHT22;6283;51.330;12.374;2023-05-23T06:10:50;17.40;99.90
12438;DHT22;6283;51.330;12.374;2023-05-23T06:13:15;17.40;99.90
12438;DHT22;6283;51.330;12.374;2023-05-23T06:15:42;17.40;99.90
12438;DHT22;6283;51.330;12.374;2023-05-23T06:18:07;17.50;99.90
12438;DHT22;6283;51.330;12.374;2023-05-23T06:20:33;17.50;99.90
12438;DHT22;6283;51.330;12.374;2023-05-23T06:22:59;17.50;99.90
12438;DHT22;6283;51.330;12.374;2023-05-23T06:25:26;17.50;69.00
12438;DHT22;6283;51.330;12.374;2023-05-23T06:27:51;17.50;36.90
12438;DHT22;6283;51.330;12.374;2023-05-23T06:30:17;17.50;1.00
12438;DHT22;6283;51.330;12.374;2023-05-23T06:32:43;17.50;1.00
12438;DHT22;6283;51.330;12.374;2023-05-23T06:35:08;17.60;1.00
12438;DHT22;6283;51.330;12.374;2023-05-23T06:37:34;17.50;1.00
12438;DHT22;6283;51.330;12.374;2023-05-23T06:40:00;17.50;1.00
12438;DHT22;6283;51.330;12.374;2023-05-23T06:42:26;17.50;1.00
12438;DHT22;6283;51.330;12.374;2023-05-23T06:44:52;17.50;1.00
12438;DHT22;6283;51.330;12.374;2023-05-23T06:47:17;17.50;1.00
12438;DHT22;6283;51.330;12.374;2023-05-23T06:49:43;17.40;16.60
12438;DHT22;6283;51.330;12.374;2023-05-23T06:52:10;17.30;76.40
12438;DHT22;6283;51.330;12.374;2023-05-23T06:54:35;17.20;99.90
12438;DHT22;6283;51.330;12.374;2023-05-23T06:57:01;17.10;61.70
12438;DHT22;6283;51.330;12.374;2023-05-23T06:59:26;17.00;59.00
12438;DHT22;6283;51.330;12.374;2023-05-23T07:01:52;16.90;26.90
12438;DHT22;6283;51.330;12.374;2023-05-23T07:04:18;16.80;23.70
12438;DHT22;6283;51.330;12.374;2023-05-23T07:06:44;16.70;27.30
12438;DHT22;6283;51.330;12.374;2023-05-23T07:09:09;16.60;79.30
12438;DHT22;6283;51.330;12.374;2023-05-23T07:11:36;16.40;99.90
12438;DHT22;6283;51.330;12.374;2023-05-23T07:14:03;16.40;99.90
12438;DHT22;6283;51.330;12.374;2023-05-23T07:16:30;16.30;99.90
12438;DHT22;6283;51.330;12.374;2023-05-23T07:18:55;16.30;99.90
12438;DHT22;6283;51.330;12.374;2023-05-23T07:21:21;16.30;99.90
12438;DHT22;6283;51.330;12.374;2023-05-23T07:23:47;16.30;99.90
12438;DHT22;6283;51.330;12.374;2023-05-23T07:26:12;16.40;85.90
12438;DHT22;6283;51.330;12.374;2023-05-23T07:28:38;16.40;1.00
12438;DHT22;6283;51.330;12.374;2023-05-23T07:31:04;16.50;1.00
12438;DHT22;6283;51.330;12.374;2023-05-23T07:33:29;16.50;1.00
12438;DHT22;6283;51.330;12.374;2023-05-23T07:35:55;16.50;1.00
12438;DHT22;6283;51.330;12.374;2023-05-23T07:38:21;16.70;1.00
12438;DHT22;6283;51.330;12.374;2023-05-23T07:40:49;16.70;1.00
12438;DHT22;6283;51.330;12.374;2023-05-23T07:43:14;16.70;1.00
12438;DHT22;6283;51.330;12.374;2023-05-23T07:45:43;16.80;1.00
12438;DHT22;6283;51.330;12.374;2023-05-23T07:48:09;16.80;1.00
12438;DHT22;6283;51.330;12.374;2023-05-23T07:50:36;16.80;1.00
12438;DHT22;6283;51.330;12.374;2023-05-23T07:53:03;16.80;99.90
12438;DHT22;6283;51.330;12.374;2023-05-23T07:55:30;16.90;99.90
12438;DHT22;6283;51.330;12.374;2023-05-23T07:57:56;16.80;99.90
12438;DHT22;6283;51.330;12.374;2023-05-23T08:00:22;16.80;99.90
12438;DHT22;6283;51.330;12.374;2023-05-23T08:02:47;16.80;99.90
12438;DHT22;6283;51.330;12.374;2023-05-23T08:05:14;16.80;99.90
12438;DHT22;6283;51.330;12.374;2023-05-23T08:07:40;16.70;99.90
12438;DHT22;6283;51.330;12.374;2023-05-23T08:10:06;16.60;99.90
12438;DHT22;6283;51.330;12.374;2023-05-23T08:12:32;16.70;99.90
12438;DHT22;6283;51.330;12.374;2023-05-23T08:14:58;16.60;99.90
12438;DHT22;6283;51.330;12.374;2023-05-23T08:17:23;16.60;99.90
12438;DHT22;6283;51.330;12.374;2023-05-23T08:19:49;16.60;99.90
12438;DHT22;6283;51.330;12.374;2023-05-23T08:22:15;16.60;99.90
12438;DHT22;6283;51.330;12.374;2023-05-23T08:24:40;16.60;99.90
12438;DHT22;6283;51.330;12.374;2023-05-23T08:27:06;16.50;99.90
12438;DHT22;6283;51.330;12.374;2023-05-23T08:29:32;16.50;1.00
12438;DHT22;6283;51.330;12.374;2023-05-23T08:31:59;16.50;1.00
12438;DHT22;6283;51.330;12.374;2023-05-23T08:34:25;16.50;1.00
12438;DHT22;6283;51.330;12.374;2023-05-23T08:36:51;16.50;1.00
12438;DHT22;6283;51.330;12.374;2023-05-23T08:39:17;16.50;1.00
12438;DHT22;6283;51.330;12.374;2023-05-23T08:41:43;16.60;1.00
12438;DHT22;6283;51.330;12.374;2023-05-23T08:44:08;16.70;1.00
12438;DHT22;6283;51.330;12.374;2023-05-23T08:46:41;16.80;1.00
12438;DHT22;6283;51.330;12.374;2023-05-23T08:49:09;16.90;1.00
12438;DHT22;6283;51.330;12.374;2023-05-23T08:51:37;17.10;1.00
12438;DHT22;6283;51.330;12.374;2023-05-23T08:54:04;17.20;99.90
12438;DHT22;6283;51.330;12.374;2023-05-23T08:56:30;17.30;99.90
12438;DHT22;6283;51.330;12.374;2023-05-23T08:58:57;17.50;99.90
12438;DHT22;6283;51.330;12.374;2023-05-23T09:01:23;17.60;99.90
12438;DHT22;6283;51.330;12.374;2023-05-23T09:03:50;17.60;99.90
12438;DHT22;6283;51.330;12.374;2023-05-23T09:06:16;17.60;99.90
12438;DHT22;6283;51.330;12.374;2023-05-23T09:08:43;17.70;99.90
12438;DHT22;6283;51.330;12.374;2023-05-23T09:11:10;17.80;99.90
12438;DHT22;6283;51.330;12.374;2023-05-23T09:13:38;17.80;99.90
12438;DHT22;6283;51.330;12.374;2023-05-23T09:16:15;17.80;99.90
12438;DHT22;6283;51.330;12.374;2023-05-23T09:18:43;17.80;99.90
12438;DHT22;6283;51.330;12.374;2023-05-23T09:21:10;17.80;99.90
12438;DHT22;6283;51.330;12.374;2023-05-23T09:23:37;17.80;99.90
12438;DHT22;6283;51.330;12.374;2023-05-23T09:26:07;17.80;99.90
12438;DHT22;6283;51.330;12.374;2023-05-23T09:28:34;17.90;99.90
12438;DHT22;6283;51.330;12.374;2023-05-23T09:31:02;17.90;99.90
12438;DHT22;6283;51.330;12.374;2023-05-23T09:33:38;17.90;99.90
12438;DHT22;6283;51.330;12.374;2023-05-23T09:36:07;17.90;99.90
12438;DHT22;6283;51.330;12.374;2023-05-23T09:38:40;18.00;99.90
12438;DHT22;6283;51.330;12.374;2023-05-23T09:41:07;18.00;99.90
12438;DHT22;6283;51.330;12.374;2023-05-23T09:43:33;18.00;99.90
12438;DHT22;6283;51.330;12.374;2023-05-23T09:46:09;17.90;99.90
12438;DHT22;6283;51.330;12.374;2023-05-23T09:48:38;17.80;99.90
12438;DHT22;6283;51.330;12.374;2023-05-23T09:51:04;17.80;99.90
12438;DHT22;6283;51.330;12.374;2023-05-23T09:53:31;17.70;99.90
12438;DHT22;6283;51.330;12.374;2023-05-23T09:55:58;17.70;99.90
12438;DHT22;6283;51.330;12.374;2023-05-23T09:58:26;17.70;99.90
12438;DHT22;6283;51.330;12.374;2023-05-23T10:00:58;17.70;99.90
12438;DHT22;6283;51.330;12.374;2023-05-23T10:03:34;17.70;99.90
12438;DHT22;6283;51.330;12.374;2023-05-23T10:06:09;17.70;99.90
12438;DHT22;6283;51.330;12.374;2023-05-23T10:08:43;17.70;99.90
12438;DHT22;6283;51.330;12.374;2023-05-23T10:13:43;17.60;99.90
12438;DHT22;6283;51.330;12.374;2023-05-23T10:16:22;17.50;99.90
12438;DHT22;6283;51.330;12.374;2023-05-23T10:18:57;17.50;99.90
12438;DHT22;6283;51.330;12.374;2023-05-23T10:21:32;17.40;99.90
12438;DHT22;6283;51.330;12.374;2023-05-23T10:24:02;17.40;99.90
12438;DHT22;6283;51.330;12.374;2023-05-23T10:26:28;17.40;99.90
12438;DHT22;6283;51.330;12.374;2023-05-23T10:28:54;17.30;99.90
12438;DHT22;6283;51.330;12.374;2023-05-23T10:31:22;17.30;99.90
12438;DHT22;6283;51.330;12.374;2023-05-23T10:33:59;17.30;99.90
12438;DHT22;6283;51.330;12.374;2023-05-23T10:39:41;17.30;99.90
12438;DHT22;6283;51.330;12.374;2023-05-23T10:44:49;17.30;99.90
12438;DHT22;6283;51.330;12.374;2023-05-23T10:47:25;17.30;99.90
12438;DHT22;6283;51.330;12.374;2023-05-23T10:49:53;17.20;99.90
12438;DHT22;6283;51.330;12.374;2023-05-23T10:52:19;17.20;99.90
12438;DHT22;6283;51.330;12.374;2023-05-23T10:54:50;17.20;99.90
12438;DHT22;6283;51.330;12.374;2023-05-23T10:57:19;17.00;99.90
12438;DHT22;6283;51.330;12.374;2023-05-23T10:59:48;17.00;99.90
12438;DHT22;6283;51.330;12.374;2023-05-23T11:02:21;16.90;99.90
12438;DHT22;6283;51.330;12.374;2023-05-23T11:10:31;16.80;99.90
12438;DHT22;6283;51.330;12.374;2023-05-23T11:13:05;16.70;99.90
12438;DHT22;6283;51.330;12.374;2023-05-23T11:15:41;16.80;99.90
12438;DHT22;6283;51.330;12.374;2023-05-23T11:18:07;16.90;99.90
12438;DHT22;6283;51.330;12.374;2023-05-23T11:20:36;17.00;99.90
12438;DHT22;6283;51.330;12.374;2023-05-23T11:23:10;17.00;99.90
12438;DHT22;6283;51.330;12.374;2023-05-23T11:25:43;17.00;99.90
12438;DHT22;6283;51.330;12.374;2023-05-23T11:28:10;17.00;99.90
12438;DHT22;6283;51.330;12.374;2023-05-23T11:30:36;17.00;99.90
12438;DHT22;6283;51.330;12.374;2023-05-23T11:33:13;17.00;99.90
12438;DHT22;6283;51.330;12.374;2023-05-23T11:35:43;17.00;99.90
12438;DHT22;6283;51.330;12.374;2023-05-23T11:38:09;17.00;99.90
12438;DHT22;6283;51.330;12.374;2023-05-23T11:40:37;16.80;99.90
12438;DHT22;6283;51.330;12.374;2023-05-23T11:43:05;16.60;99.90
12438;DHT22;6283;51.330;12.374;2023-05-23T11:45:33;16.40;1.00
12438;DHT22;6283;51.330;12.374;2023-05-23T11:48:10;16.30;1.00
12438;DHT22;6283;51.330;12.374;2023-05-23T11:50:44;16.10;1.00
12438;DHT22;6283;51.330;12.374;2023-05-23T11:53:11;16.10;1.00
12438;DHT22;6283;51.330;12.374;2023-05-23T11:55:39;16.10;1.00
12438;DHT22;6283;51.330;12.374;2023-05-23T11:58:06;16.20;1.00
12438;DHT22;6283;51.330;12.374;2023-05-23T12:00:32;16.10;1.00
12438;DHT22;6283;51.330;12.374;2023-05-23T12:02:57;16.10;1.00
12438;DHT22;6283;51.330;12.374;2023-05-23T12:05:23;16.10;1.00
12438;DHT22;6283;51.330;12.374;2023-05-23T12:07:49;16.10;1.00
12438;DHT22;6283;51.330;12.374;2023-05-23T12:10:15;16.00;14.00
12438;DHT22;6283;51.330;12.374;2023-05-23T12:12:42;15.90;99.90
12438;DHT22;6283;51.330;12.374;2023-05-23T12:15:09;15.70;99.90
12438;DHT22;6283;51.330;12.374;2023-05-23T12:17:43;15.50;99.90
12438;DHT22;6283;51.330;12.374;2023-05-23T12:20:10;15.40;99.90
12438;DHT22;6283;51.330;12.374;2023-05-23T12:22:36;15.30;1.00
12438;DHT22;6283;51.330;12.374;2023-05-23T12:25:02;15.20;1.00
12438;DHT22;6283;51.330;12.374;2023-05-23T12:27:32;15.20;1.00
12438;DHT22;6283;51.330;12.374;2023-05-23T12:30:08;15.20;1.00
12438;DHT22;6283;51.330;12.374;2023-05-23T12:32:38;15.20;1.00
12438;DHT22;6283;51.330;12.374;2023-05-23T12:35:05;15.10;1.00
12438;DHT22;6283;51.330;12.374;2023-05-23T12:37:31;15.10;1.00
12438;DHT22;6283;51.330;12.374;2023-05-23T12:39:56;15.10;1.00
12438;DHT22;6283;51.330;12.374;2023-05-23T12:42:22;15.10;1.00
12438;DHT22;6283;51.330;12.374;2023-05-23T12:44:52;15.10;1.00
12438;DHT22;6283;51.330;12.374;2023-05-23T12:47:18;15.10;1.00
12438;DHT22;6283;51.330;12.374;2023-05-23T12:49:44;15.20;99.90
12438;DHT22;6283;51.330;12.374;2023-05-23T12:52:11;15.20;99.90
12438;DHT22;6283;51.330;12.374;2023-05-23T12:54:36;15.30;99.90
12438;DHT22;6283;51.330;12.374;2023-05-23T12:57:02;15.20;1.00
12438;DHT22;6283;51.330;12.374;2023-05-23T12:59:28;15.30;1.00
12438;DHT22;6283;51.330;12.374;2023-05-23T13:01:54;15.20;1.00
12438;DHT22;6283;51.330;12.374;2023-05-23T13:04:19;15.30;1.00
12438;DHT22;6283;51.330;12.374;2023-05-23T13:06:45;15.00;1.00
12438;DHT22;6283;51.330;12.374;2023-05-23T13:09:11;15.30;1.00
12438;DHT22;6283;51.330;12.374;2023-05-23T13:11:36;15.30;1.00
12438;DHT22;6283;51.330;12.374;2023-05-23T13:14:02;15.20;1.00
12438;DHT22;6283;51.330;12.374;2023-05-23T13:16:28;15.20;1.00
12438;DHT22;6283;51.330;12.374;2023-05-23T13:18:54;15.30;1.00
12438;DHT22;6283;51.330;12.374;2023-05-23T13:21:19;15.30;1.00
12438;DHT22;6283;51.330;12.374;2023-05-23T13:23:46;15.30;1.00
12438;DHT22;6283;51.330;12.374;2023-05-23T13:26:11;15.30;1.00
12438;DHT22;6283;51.330;12.374;2023-05-23T13:28:38;15.30;1.00
12438;DHT22;6283;51.330;12.374;2023-05-23T13:31:05;15.40;1.00
12438;DHT22;6283;51.330;12.374;2023-05-23T13:33:30;15.40;1.00
12438;DHT22;6283;51.330;12.374;2023-05-23T13:35:56;15.40;1.00
12438;DHT22;6283;51.330;12.374;2023-05-23T13:38:22;15.30;1.00
12438;DHT22;6283;51.330;12.374;2023-05-23T13:40:47;15.30;1.00
12438;DHT22;6283;51.330;12.374;2023-05-23T13:43:13;15.30;1.00
12438;DHT22;6283;51.330;12.374;2023-05-23T13:45:38;15.30;1.00
12438;DHT22;6283;51.330;12.374;2023-05-23T13:48:04;15.20;1.00
12438;DHT22;6283;51.330;12.374;2023-05-23T13:50:30;15.20;1.00
12438;DHT22;6283;51.330;12.374;2023-05-23T13:52:55;15.20;1.00
12438;DHT22;6283;51.330;12.374;2023-05-23T13:55:21;15.20;1.00
12438;DHT22;6283;51.330;12.374;2023-05-23T13:57:47;15.20;1.00
12438;DHT22;6283;51.330;12.374;2023-05-23T14:00:13;15.00;1.00
12438;DHT22;6283;51.330;12.374;2023-05-23T14:02:39;15.10;1.00
12438;DHT22;6283;51.330;12.374;2023-05-23T14:05:05;15.00;1.00
12438;DHT22;6283;51.330;12.374;2023-05-23T14:07:32;15.00;1.00
12438;DHT22;6283;51.330;12.374;2023-05-23T14:09:57;15.00;1.00
12438;DHT22;6283;51.330;12.374;2023-05-23T14:12:24;15.00;1.00
12438;DHT22;6283;51.330;12.374;2023-05-23T14:14:50;15.00;1.00
12438;DHT22;6283;51.330;12.374;2023-05-23T14:17:16;15.00;1.00
12438;DHT22;6283;51.330;12.374;2023-05-23T14:19:42;14.90;1.00
12438;DHT22;6283;51.330;12.374;2023-05-23T14:22:07;14.80;1.00
12438;DHT22;6283;51.330;12.374;2023-05-23T14:24:33;14.80;1.00
12438;DHT22;6283;51.330;12.374;2023-05-23T14:26:58;14.80;1.00
12438;DHT22;6283;51.330;12.374;2023-05-23T14:29:24;14.70;1.00
12438;DHT22;6283;51.330;12.374;2023-05-23T14:31:50;14.70;1.00
12438;DHT22;6283;51.330;12.374;2023-05-23T14:34:16;14.60;1.00
12438;DHT22;6283;51.330;12.374;2023-05-23T14:36:42;14.70;1.00
12438;DHT22;6283;51.330;12.374;2023-05-23T14:39:07;14.60;1.00
12438;DHT22;6283;51.330;12.374;2023-05-23T14:41:34;14.70;1.00
12438;DHT22;6283;51.330;12.374;2023-05-23T14:44:00;14.70;1.00
12438;DHT22;6283;51.330;12.374;2023-05-23T14:46:25;14.70;1.00
12438;DHT22;6283;51.330;12.374;2023-05-23T14:48:51;14.70;1.00
12438;DHT22;6283;51.330;12.374;2023-05-23T14:51:17;14.70;1.00
12438;DHT22;6283;51.330;12.374;2023-05-23T14:53:42;14.60;1.00
12438;DHT22;6283;51.330;12.374;2023-05-23T14:56:08;14.70;1.00
12438;DHT22;6283;51.330;12.374;2023-05-23T14:58:34;14.60;1.00
12438;DHT22;6283;51.330;12.374;2023-05-23T15:01:00;14.50;1.00
12438;DHT22;6283;51.330;12.374;2023-05-23T15:03:26;14.40;1.00
12438;DHT22;6283;51.330;12.374;2023-05-23T15:05:52;14.40;1.00
12438;DHT22;6283;51.330;12.374;2023-05-23T15:08:17;14.30;1.00
12438;DHT22;6283;51.330;12.374;2023-05-23T15:10:44;14.20;1.00
12438;DHT22;6283;51.330;12.374;2023-05-23T15:13:10;14.30;1.00
12438;DHT22;6283;51.330;12.374;2023-05-23T15:15:35;14.30;1.00
12438;DHT22;6283;51.330;12.374;2023-05-23T15:18:05;14.20;1.00
12438;DHT22;6283;51.330;12.374;2023-05-23T15:20:34;14.10;1.00
12438;DHT22;6283;51.330;12.374;2023-05-23T15:23:03;14.20;1.00
12438;DHT22;6283;51.330;12.374;2023-05-23T15:25:29;14.10;1.00
12438;DHT22;6283;51.330;12.374;2023-05-23T15:27:55;14.10;1.00
12438;DHT22;6283;51.330;12.374;2023-05-23T15:30:21;14.10;1.00
12438;DHT22;6283;51.330;12.374;2023-05-23T15:32:47;14.00;1.00
12438;DHT22;6283;51.330;12.374;2023-05-23T15:35:13;14.00;1.00
12438;DHT22;6283;51.330;12.374;2023-05-23T15:37:40;14.10;1.00
12438;DHT22;6283;51.330;12.374;2023-05-23T15:40:06;13.80;1.00
12438;DHT22;6283;51.330;12.374;2023-05-23T15:42:32;13.80;1.00
12438;DHT22;6283;51.330;12.374;2023-05-23T15:44:57;13.70;1.00
12438;DHT22;6283;51.330;12.374;2023-05-23T15:47:25;13.60;1.00
12438;DHT22;6283;51.330;12.374;2023-05-23T15:49:51;13.50;1.00
12438;DHT22;6283;51.330;12.374;2023-05-23T15:52:17;13.60;1.00
12438;DHT22;6283;51.330;12.374;2023-05-23T15:54:43;13.40;1.00
12438;DHT22;6283;51.330;12.374;2023-05-23T15:57:08;13.40;1.00